Terminal Aerodrome Forecast
Issued by NWS

Home | Current Version | Previous Version | Text Only | Print | Product List | Glossary On
Versions: 1 2 3 4 5 6 7 8 9 10 11 12 13 14 15 16 17 18 19 20 21 22 23 24 25 26 27 28 29 30 31 32 33 34 35 36 37
000
FTUS41 KGYX 082320
TAFMHT
TAF
KMHT 082320Z 0900/0924 36010G17KT 1SM -SN VV017
      TEMPO 0900/0903 2SM -SN BR OVC025
     FM090300 36007KT 1/2SM -SN FG OVC015
     FM090600 36005KT 1 1/2SM -SN BR OVC015
     FM091200 01006KT P6SM OVC015=

USA.gov is the U.S. government's official web portal to all federal, state and local government web resources and services.